sensor_id;sensor_type;location;lat;lon;timestamp;pressure;altitude;pressure_sealevel;temperature;humidity
38852;BME280;24605;50.092;9.182;2023-03-21T00:01:39;98127.72;;;8.27;88.20
38852;BME280;24605;50.092;9.182;2023-03-21T00:04:06;98121.97;;;8.23;88.07
38852;BME280;24605;50.092;9.182;2023-03-21T00:06:32;98115.31;;;8.29;86.79
38852;BME280;24605;50.092;9.182;2023-03-21T00:09:02;98121.53;;;8.10;88.03
38852;BME280;24605;50.092;9.182;2023-03-21T00:11:28;98120.03;;;8.25;87.43
38852;BME280;24605;50.092;9.182;2023-03-21T00:13:55;98119.97;;;8.17;87.35
38852;BME280;24605;50.092;9.182;2023-03-21T00:16:26;98107.34;;;8.12;88.32
38852;BME280;24605;50.092;9.182;2023-03-21T00:18:55;98090.31;;;8.08;88.77
38852;BME280;24605;50.092;9.182;2023-03-21T00:21:23;98108.97;;;8.31;87.57
38852;BME280;24605;50.092;9.182;2023-03-21T00:23:53;98042.59;;;7.98;87.21
38852;BME280;24605;50.092;9.182;2023-03-21T00:26:21;98108.09;;;8.23;87.24
38852;BME280;24605;50.092;9.182;2023-03-21T00:28:48;98104.97;;;8.19;88.59
38852;BME280;24605;50.092;9.182;2023-03-21T00:31:15;98106.50;;;8.12;89.10
38852;BME280;24605;50.092;9.182;2023-03-21T00:33:41;98110.13;;;8.11;88.05
38852;BME280;24605;50.092;9.182;2023-03-21T00:36:09;98097.50;;;7.88;90.25
38852;BME280;24605;50.092;9.182;2023-03-21T00:38:37;98100.28;;;7.77;91.95
38852;BME280;24605;50.092;9.182;2023-03-21T00:41:04;98101.13;;;7.95;90.92
38852;BME280;24605;50.092;9.182;2023-03-21T00:43:32;98094.97;;;7.96;90.98
38852;BME280;24605;50.092;9.182;2023-03-21T00:45:59;98090.56;;;7.97;90.08
38852;BME280;24605;50.092;9.182;2023-03-21T00:48:26;98082.50;;;8.08;89.86
38852;BME280;24605;50.092;9.182;2023-03-21T00:50:55;98082.38;;;8.10;89.19
38852;BME280;24605;50.092;9.182;2023-03-21T00:53:23;98067.34;;;8.12;88.65
38852;BME280;24605;50.092;9.182;2023-03-21T00:55:50;98068.69;;;8.16;88.97
38852;BME280;24605;50.092;9.182;2023-03-21T00:58:17;98019.72;;;7.74;88.98
38852;BME280;24605;50.092;9.182;2023-03-21T01:00:45;98073.84;;;8.08;88.98
38852;BME280;24605;50.092;9.182;2023-03-21T01:03:14;98071.91;;;8.10;88.78
38852;BME280;24605;50.092;9.182;2023-03-21T01:05:43;98065.28;;;7.97;90.25
38852;BME280;24605;50.092;9.182;2023-03-21T01:08:30;98056.16;;;7.65;92.53
38852;BME280;24605;50.092;9.182;2023-03-21T01:11:01;98059.94;;;7.53;94.21
38852;BME280;24605;50.092;9.182;2023-03-21T01:13:27;98058.53;;;7.59;94.32
38852;BME280;24605;50.092;9.182;2023-03-21T01:15:57;98059.06;;;7.62;93.48
38852;BME280;24605;50.092;9.182;2023-03-21T01:18:26;98059.44;;;7.67;92.71
38852;BME280;24605;50.092;9.182;2023-03-21T01:20:54;98059.06;;;7.62;92.62
38852;BME280;24605;50.092;9.182;2023-03-21T01:23:21;98061.38;;;7.65;91.58
38852;BME280;24605;50.092;9.182;2023-03-21T01:25:48;98052.69;;;7.75;91.25
38852;BME280;24605;50.092;9.182;2023-03-21T01:28:15;98045.22;;;7.62;91.10
38852;BME280;24605;50.092;9.182;2023-03-21T01:30:44;98062.66;;;7.97;90.00
38852;BME280;24605;50.092;9.182;2023-03-21T01:33:13;98067.00;;;7.89;90.05
38852;BME280;24605;50.092;9.182;2023-03-21T01:35:39;98056.25;;;7.74;91.70
38852;BME280;24605;50.092;9.182;2023-03-21T01:38:06;98058.84;;;7.74;91.70
38852;BME280;24605;50.092;9.182;2023-03-21T01:40:34;98040.19;;;7.68;90.90
38852;BME280;24605;50.092;9.182;2023-03-21T01:43:01;98059.63;;;7.84;91.64
38852;BME280;24605;50.092;9.182;2023-03-21T01:48:34;98055.56;;;7.72;91.46
38852;BME280;24605;50.092;9.182;2023-03-21T01:51:02;98059.97;;;7.89;90.82
38852;BME280;24605;50.092;9.182;2023-03-21T01:53:29;98050.13;;;7.65;91.80
38852;BME280;24605;50.092;9.182;2023-03-21T01:55:59;98059.22;;;7.61;93.45
38852;BME280;24605;50.092;9.182;2023-03-21T01:58:27;98044.75;;;7.84;91.51
38852;BME280;24605;50.092;9.182;2023-03-21T02:00:54;98041.09;;;7.95;90.46
38852;BME280;24605;50.092;9.182;2023-03-21T02:03:22;98038.44;;;8.05;89.34
38852;BME280;24605;50.092;9.182;2023-03-21T02:05:53;98041.34;;;7.84;90.77
38852;BME280;24605;50.092;9.182;2023-03-21T02:08:22;98018.00;;;7.64;91.64
38852;BME280;24605;50.092;9.182;2023-03-21T02:10:50;98034.84;;;7.88;91.16
38852;BME280;24605;50.092;9.182;2023-03-21T02:13:17;98028.88;;;7.78;92.22
38852;BME280;24605;50.092;9.182;2023-03-21T02:15:49;98022.44;;;7.72;92.57
38852;BME280;24605;50.092;9.182;2023-03-21T02:18:23;98025.66;;;7.66;93.73
38852;BME280;24605;50.092;9.182;2023-03-21T02:21:23;98018.22;;;7.71;93.32
38852;BME280;24605;50.092;9.182;2023-03-21T02:27:08;97999.94;;;7.53;95.58
38852;BME280;24605;50.092;9.182;2023-03-21T02:32:54;98011.88;;;7.74;95.11
38852;BME280;24605;50.092;9.182;2023-03-21T02:35:34;98011.13;;;7.63;96.15
38852;BME280;24605;50.092;9.182;2023-03-21T02:38:06;98020.22;;;7.59;97.00
38852;BME280;24605;50.092;9.182;2023-03-21T02:40:39;98016.72;;;7.68;95.86
38852;BME280;24605;50.092;9.182;2023-03-21T02:43:11;98011.56;;;7.77;95.00
38852;BME280;24605;50.092;9.182;2023-03-21T02:45:43;98007.25;;;7.67;95.74
38852;BME280;24605;50.092;9.182;2023-03-21T02:48:12;97996.81;;;7.67;95.03
38852;BME280;24605;50.092;9.182;2023-03-21T02:50:45;98004.63;;;7.67;95.76
38852;BME280;24605;50.092;9.182;2023-03-21T02:53:16;98012.19;;;7.71;95.82
38852;BME280;24605;50.092;9.182;2023-03-21T02:55:46;98002.78;;;7.78;94.35
38852;BME280;24605;50.092;9.182;2023-03-21T02:58:16;98009.41;;;7.90;94.93
38852;BME280;24605;50.092;9.182;2023-03-21T03:00:44;98003.91;;;7.75;95.55
38852;BME280;24605;50.092;9.182;2023-03-21T03:03:11;98008.00;;;7.60;96.88
38852;BME280;24605;50.092;9.182;2023-03-21T03:05:41;97996.81;;;7.67;96.12
38852;BME280;24605;50.092;9.182;2023-03-21T03:08:23;97990.09;;;7.47;96.85
38852;BME280;24605;50.092;9.182;2023-03-21T03:11:02;97995.00;;;7.50;96.32
38852;BME280;24605;50.092;9.182;2023-03-21T03:13:42;97999.41;;;7.49;97.32
38852;BME280;24605;50.092;9.182;2023-03-21T03:16:20;97995.09;;;7.40;97.60
38852;BME280;24605;50.092;9.182;2023-03-21T03:18:52;97992.91;;;7.35;98.53
38852;BME280;24605;50.092;9.182;2023-03-21T03:21:23;97994.31;;;7.30;99.46
38852;BME280;24605;50.092;9.182;2023-03-21T03:23:56;97990.50;;;7.24;99.66
38852;BME280;24605;50.092;9.182;2023-03-21T03:26:27;97985.16;;;7.26;98.79
38852;BME280;24605;50.092;9.182;2023-03-21T03:28:58;97984.66;;;7.40;96.84
38852;BME280;24605;50.092;9.182;2023-03-21T03:31:31;98002.47;;;7.45;97.45
38852;BME280;24605;50.092;9.182;2023-03-21T03:34:02;97995.53;;;7.35;98.78
38852;BME280;24605;50.092;9.182;2023-03-21T03:36:34;97991.50;;;7.41;98.28
38852;BME280;24605;50.092;9.182;2023-03-21T03:39:06;97996.28;;;7.46;97.14
38852;BME280;24605;50.092;9.182;2023-03-21T03:41:40;97987.41;;;7.39;97.30
38852;BME280;24605;50.092;9.182;2023-03-21T03:44:08;97979.88;;;7.17;99.02
38852;BME280;24605;50.092;9.182;2023-03-21T03:46:39;97983.97;;;7.38;99.01
38852;BME280;24605;50.092;9.182;2023-03-21T03:49:13;97982.69;;;7.24;99.86
38852;BME280;24605;50.092;9.182;2023-03-21T03:51:43;97980.50;;;7.01;100.00
38852;BME280;24605;50.092;9.182;2023-03-21T03:54:18;97946.88;;;6.70;100.00
38852;BME280;24605;50.092;9.182;2023-03-21T03:56:47;97981.25;;;6.84;100.00
38852;BME280;24605;50.092;9.182;2023-03-21T03:59:14;97989.50;;;6.79;100.00
38852;BME280;24605;50.092;9.182;2023-03-21T04:01:43;97992.69;;;6.73;100.00
38852;BME280;24605;50.092;9.182;2023-03-21T04:04:10;97988.97;;;6.76;100.00
38852;BME280;24605;50.092;9.182;2023-03-21T04:06:37;97977.94;;;6.54;100.00
38852;BME280;24605;50.092;9.182;2023-03-21T04:09:04;97988.44;;;6.24;100.00
38852;BME280;24605;50.092;9.182;2023-03-21T04:11:33;97990.38;;;6.13;100.00
38852;BME280;24605;50.092;9.182;2023-03-21T04:14:00;97990.38;;;5.93;100.00
38852;BME280;24605;50.092;9.182;2023-03-21T04:16:26;97990.09;;;5.76;100.00
38852;BME280;24605;50.092;9.182;2023-03-21T04:18:55;97987.63;;;5.85;100.00
38852;BME280;24605;50.092;9.182;2023-03-21T04:21:22;97981.47;;;5.66;100.00
38852;BME280;24605;50.092;9.182;2023-03-21T04:23:48;97980.13;;;5.62;100.00
38852;BME280;24605;50.092;9.182;2023-03-21T04:26:15;97977.91;;;5.47;100.00
38852;BME280;24605;50.092;9.182;2023-03-21T04:28:43;97983.38;;;5.34;100.00
38852;BME280;24605;50.092;9.182;2023-03-21T04:31:09;97975.81;;;5.22;100.00
38852;BME280;24605;50.092;9.182;2023-03-21T04:33:37;97982.94;;;5.20;100.00
38852;BME280;24605;50.092;9.182;2023-03-21T04:36:04;97978.16;;;5.15;100.00
38852;BME280;24605;50.092;9.182;2023-03-21T04:38:33;97978.56;;;5.10;100.00
38852;BME280;24605;50.092;9.182;2023-03-21T04:41:00;97975.28;;;5.18;100.00
38852;BME280;24605;50.092;9.182;2023-03-21T04:43:27;97964.72;;;5.00;100.00
38852;BME280;24605;50.092;9.182;2023-03-21T04:45:56;97974.81;;;5.03;100.00
38852;BME280;24605;50.092;9.182;2023-03-21T04:48:22;97954.78;;;4.74;100.00
38852;BME280;24605;50.092;9.182;2023-03-21T04:50:49;97971.78;;;4.88;100.00
38852;BME280;24605;50.092;9.182;2023-03-21T04:53:16;97968.19;;;4.79;100.00
38852;BME280;24605;50.092;9.182;2023-03-21T04:55:43;97965.22;;;4.84;100.00
38852;BME280;24605;50.092;9.182;2023-03-21T04:58:09;97955.75;;;4.83;100.00
38852;BME280;24605;50.092;9.182;2023-03-21T05:00:36;97968.91;;;4.91;100.00
38852;BME280;24605;50.092;9.182;2023-03-21T05:03:05;97973.75;;;5.06;100.00
38852;BME280;24605;50.092;9.182;2023-03-21T05:05:34;97964.59;;;5.11;100.00
38852;BME280;24605;50.092;9.182;2023-03-21T05:08:00;97957.50;;;5.23;100.00
38852;BME280;24605;50.092;9.182;2023-03-21T05:10:27;97969.84;;;5.41;100.00
38852;BME280;24605;50.092;9.182;2023-03-21T05:12:53;97967.94;;;5.53;100.00
38852;BME280;24605;50.092;9.182;2023-03-21T05:15:20;97971.38;;;5.63;100.00
38852;BME280;24605;50.092;9.182;2023-03-21T05:17:46;97971.09;;;5.76;100.00
38852;BME280;24605;50.092;9.182;2023-03-21T05:20:14;97962.47;;;5.65;100.00
38852;BME280;24605;50.092;9.182;2023-03-21T05:22:41;97965.47;;;5.61;100.00
38852;BME280;24605;50.092;9.182;2023-03-21T05:25:11;97975.63;;;5.64;100.00
38852;BME280;24605;50.092;9.182;2023-03-21T05:27:38;97973.00;;;5.74;100.00
38852;BME280;24605;50.092;9.182;2023-03-21T05:30:11;97963.28;;;5.66;100.00
38852;BME280;24605;50.092;9.182;2023-03-21T05:32:38;97976.69;;;5.71;100.00
38852;BME280;24605;50.092;9.182;2023-03-21T05:35:05;97977.91;;;5.67;100.00
38852;BME280;24605;50.092;9.182;2023-03-21T05:37:33;97967.25;;;5.70;100.00
38852;BME280;24605;50.092;9.182;2023-03-21T05:40:00;97964.38;;;5.63;100.00
38852;BME280;24605;50.092;9.182;2023-03-21T05:42:27;97972.44;;;5.51;100.00
38852;BME280;24605;50.092;9.182;2023-03-21T05:44:54;97973.13;;;5.43;100.00
38852;BME280;24605;50.092;9.182;2023-03-21T05:47:20;97976.69;;;5.42;100.00
38852;BME280;24605;50.092;9.182;2023-03-21T05:49:47;97972.16;;;5.63;100.00
38852;BME280;24605;50.092;9.182;2023-03-21T05:52:14;97973.81;;;5.64;100.00
38852;BME280;24605;50.092;9.182;2023-03-21T05:54:41;97968.50;;;5.76;100.00
38852;BME280;24605;50.092;9.182;2023-03-21T05:57:08;97976.16;;;5.77;100.00
38852;BME280;24605;50.092;9.182;2023-03-21T05:59:35;97973.94;;;5.92;100.00
38852;BME280;24605;50.092;9.182;2023-03-21T06:02:01;97973.16;;;6.02;100.00
38852;BME280;24605;50.092;9.182;2023-03-21T06:04:28;97950.94;;;5.88;100.00
38852;BME280;24605;50.092;9.182;2023-03-21T06:06:55;97952.06;;;5.85;100.00
38852;BME280;24605;50.092;9.182;2023-03-21T06:09:22;97960.25;;;6.00;100.00
38852;BME280;24605;50.092;9.182;2023-03-21T06:11:52;97941.09;;;6.01;100.00
38852;BME280;24605;50.092;9.182;2023-03-21T06:14:19;97960.69;;;6.05;100.00
38852;BME280;24605;50.092;9.182;2023-03-21T06:16:46;97952.88;;;6.05;100.00
38852;BME280;24605;50.092;9.182;2023-03-21T06:19:13;97951.19;;;6.14;100.00
38852;BME280;24605;50.092;9.182;2023-03-21T06:21:40;97943.69;;;6.11;100.00
38852;BME280;24605;50.092;9.182;2023-03-21T06:24:07;97965.44;;;6.20;100.00
38852;BME280;24605;50.092;9.182;2023-03-21T06:26:34;97968.56;;;6.33;100.00
38852;BME280;24605;50.092;9.182;2023-03-21T06:29:02;97957.97;;;6.45;100.00
38852;BME280;24605;50.092;9.182;2023-03-21T06:31:29;97961.25;;;6.47;100.00
38852;BME280;24605;50.092;9.182;2023-03-21T06:33:56;97959.06;;;6.42;100.00
38852;BME280;24605;50.092;9.182;2023-03-21T06:36:22;97956.50;;;6.70;100.00
38852;BME280;24605;50.092;9.182;2023-03-21T06:38:48;97974.66;;;6.89;100.00
38852;BME280;24605;50.092;9.182;2023-03-21T06:41:16;97975.88;;;6.95;100.00
38852;BME280;24605;50.092;9.182;2023-03-21T06:43:43;97956.88;;;7.03;100.00
38852;BME280;24605;50.092;9.182;2023-03-21T06:46:11;97976.94;;;7.20;100.00
38852;BME280;24605;50.092;9.182;2023-03-21T06:48:37;97976.97;;;7.39;100.00
38852;BME280;24605;50.092;9.182;2023-03-21T06:51:09;97990.88;;;7.57;100.00
38852;BME280;24605;50.092;9.182;2023-03-21T06:53:36;97989.75;;;7.60;100.00
38852;BME280;24605;50.092;9.182;2023-03-21T06:56:03;97982.78;;;7.68;100.00
38852;BME280;24605;50.092;9.182;2023-03-21T06:58:29;97988.09;;;7.77;100.00
38852;BME280;24605;50.092;9.182;2023-03-21T07:00:57;97999.56;;;7.66;100.00
38852;BME280;24605;50.092;9.182;2023-03-21T07:03:25;97994.06;;;7.69;100.00
38852;BME280;24605;50.092;9.182;2023-03-21T07:05:52;97991.97;;;7.73;100.00
38852;BME280;24605;50.092;9.182;2023-03-21T07:08:18;97990.25;;;7.63;100.00
38852;BME280;24605;50.092;9.182;2023-03-21T07:10:45;97994.94;;;7.78;100.00
38852;BME280;24605;50.092;9.182;2023-03-21T07:13:12;97993.22;;;8.05;100.00
38852;BME280;24605;50.092;9.182;2023-03-21T07:15:39;97997.53;;;8.14;97.40
38852;BME280;24605;50.092;9.182;2023-03-21T07:18:07;97988.03;;;8.31;96.67
38852;BME280;24605;50.092;9.182;2023-03-21T07:20:35;97982.75;;;8.23;96.58
38852;BME280;24605;50.092;9.182;2023-03-21T07:23:03;97996.78;;;8.48;95.91
38852;BME280;24605;50.092;9.182;2023-03-21T07:25:30;97992.84;;;8.70;95.14
38852;BME280;24605;50.092;9.182;2023-03-21T07:27:57;97989.97;;;8.82;93.68
38852;BME280;24605;50.092;9.182;2023-03-21T07:30:23;97975.72;;;8.76;93.03
38852;BME280;24605;50.092;9.182;2023-03-21T07:32:50;97999.66;;;8.98;92.81
38852;BME280;24605;50.092;9.182;2023-03-21T07:35:18;97991.97;;;8.96;90.76
38852;BME280;24605;50.092;9.182;2023-03-21T07:37:45;98000.50;;;9.06;90.30
38852;BME280;24605;50.092;9.182;2023-03-21T07:40:12;97992.22;;;9.19;89.55
38852;BME280;24605;50.092;9.182;2023-03-21T07:42:40;97987.66;;;9.30;89.69
38852;BME280;24605;50.092;9.182;2023-03-21T07:45:08;97987.97;;;9.27;89.55
38852;BME280;24605;50.092;9.182;2023-03-21T07:47:35;97991.63;;;9.34;89.08
38852;BME280;24605;50.092;9.182;2023-03-21T07:50:02;97975.38;;;9.22;87.29
38852;BME280;24605;50.092;9.182;2023-03-21T07:52:29;97980.09;;;9.18;87.96
38852;BME280;24605;50.092;9.182;2023-03-21T07:54:57;97972.66;;;9.40;87.49
38852;BME280;24605;50.092;9.182;2023-03-21T07:57:24;97987.72;;;9.63;85.71
38852;BME280;24605;50.092;9.182;2023-03-21T07:59:50;97976.63;;;9.77;85.51
38852;BME280;24605;50.092;9.182;2023-03-21T08:02:17;97971.06;;;9.80;85.36
38852;BME280;24605;50.092;9.182;2023-03-21T08:04:44;97972.69;;;9.90;85.49
38852;BME280;24605;50.092;9.182;2023-03-21T08:07:11;97980.72;;;9.80;84.18
38852;BME280;24605;50.092;9.182;2023-03-21T08:09:38;97985.16;;;9.96;84.42
38852;BME280;24605;50.092;9.182;2023-03-21T08:12:06;97987.75;;;10.12;83.64
38852;BME280;24605;50.092;9.182;2023-03-21T08:14:33;97986.94;;;10.12;83.68
38852;BME280;24605;50.092;9.182;2023-03-21T08:17:00;97977.13;;;9.97;83.48
38852;BME280;24605;50.092;9.182;2023-03-21T08:19:27;97982.53;;;9.96;84.25
38852;BME280;24605;50.092;9.182;2023-03-21T08:21:53;97970.72;;;10.08;83.83
38852;BME280;24605;50.092;9.182;2023-03-21T08:24:23;97977.09;;;10.30;83.63
38852;BME280;24605;50.092;9.182;2023-03-21T08:26:50;97973.94;;;10.60;79.99
38852;BME280;24605;50.092;9.182;2023-03-21T08:29:18;97982.41;;;10.78;78.58
38852;BME280;24605;50.092;9.182;2023-03-21T08:31:45;97982.09;;;11.13;78.17
38852;BME280;24605;50.092;9.182;2023-03-21T08:34:12;97983.97;;;10.96;77.88
38852;BME280;24605;50.092;9.182;2023-03-21T08:36:39;97966.47;;;11.28;75.99
38852;BME280;24605;50.092;9.182;2023-03-21T08:39:06;97982.41;;;11.73;74.39
38852;BME280;24605;50.092;9.182;2023-03-21T08:41:33;97978.94;;;12.19;73.03
38852;BME280;24605;50.092;9.182;2023-03-21T08:44:00;97980.31;;;12.30;71.76
38852;BME280;24605;50.092;9.182;2023-03-21T08:46:29;97984.09;;;12.27;71.31
38852;BME280;24605;50.092;9.182;2023-03-21T08:48:55;97962.84;;;11.99;70.20
38852;BME280;24605;50.092;9.182;2023-03-21T08:51:22;97977.09;;;12.43;69.88
38852;BME280;24605;50.092;9.182;2023-03-21T08:53:49;97956.84;;;12.28;70.77
38852;BME280;24605;50.092;9.182;2023-03-21T08:56:16;97961.56;;;12.33;70.25
38852;BME280;24605;50.092;9.182;2023-03-21T08:58:42;97980.00;;;12.10;70.17
38852;BME280;24605;50.092;9.182;2023-03-21T09:01:09;97973.47;;;12.05;71.94
38852;BME280;24605;50.092;9.182;2023-03-21T09:03:41;97977.84;;;12.28;71.74
38852;BME280;24605;50.092;9.182;2023-03-21T09:06:08;97974.97;;;12.23;70.71
38852;BME280;24605;50.092;9.182;2023-03-21T09:08:36;97971.75;;;12.51;70.36
38852;BME280;24605;50.092;9.182;2023-03-21T09:11:03;97979.16;;;12.62;70.39
38852;BME280;24605;50.092;9.182;2023-03-21T09:13:29;97958.59;;;12.51;71.06
38852;BME280;24605;50.092;9.182;2023-03-21T09:15:56;97974.53;;;12.64;71.11
38852;BME280;24605;50.092;9.182;2023-03-21T09:18:25;97980.59;;;12.80;69.34
38852;BME280;24605;50.092;9.182;2023-03-21T09:21:07;97971.63;;;12.89;68.67
38852;BME280;24605;50.092;9.182;2023-03-21T09:23:37;97963.22;;;12.64;69.34
38852;BME280;24605;50.092;9.182;2023-03-21T09:26:04;97968.91;;;12.67;69.83
38852;BME280;24605;50.092;9.182;2023-03-21T09:28:30;97972.63;;;12.58;69.33
38852;BME280;24605;50.092;9.182;2023-03-21T09:30:57;97962.75;;;12.60;70.40
38852;BME280;24605;50.092;9.182;2023-03-21T09:33:24;97960.75;;;12.62;70.31
38852;BME280;24605;50.092;9.182;2023-03-21T09:35:53;97971.66;;;12.59;70.22
38852;BME280;24605;50.092;9.182;2023-03-21T09:38:21;97965.53;;;13.04;69.05
38852;BME280;24605;50.092;9.182;2023-03-21T09:41:02;97963.78;;;13.11;68.16
38852;BME280;24605;50.092;9.182;2023-03-21T09:43:40;97971.13;;;13.15;68.18
38852;BME280;24605;50.092;9.182;2023-03-21T09:46:17;97956.22;;;13.23;68.07
38852;BME280;24605;50.092;9.182;2023-03-21T09:48:50;97967.66;;;13.15;67.73
38852;BME280;24605;50.092;9.182;2023-03-21T09:51:23;97931.91;;;12.54;69.52
38852;BME280;24605;50.092;9.182;2023-03-21T09:53:54;97968.34;;;12.87;70.42
38852;BME280;24605;50.092;9.182;2023-03-21T09:56:23;97971.38;;;12.84;69.24
38852;BME280;24605;50.092;9.182;2023-03-21T09:58:52;97961.47;;;12.86;69.93
38852;BME280;24605;50.092;9.182;2023-03-21T10:01:24;97966.19;;;12.91;68.61
38852;BME280;24605;50.092;9.182;2023-03-21T10:03:53;97967.00;;;12.61;70.02
38852;BME280;24605;50.092;9.182;2023-03-21T10:06:22;97967.19;;;12.75;68.88
38852;BME280;24605;50.092;9.182;2023-03-21T10:08:57;97962.72;;;12.75;68.84
38852;BME280;24605;50.092;9.182;2023-03-21T10:11:26;97947.59;;;12.47;69.68
38852;BME280;24605;50.092;9.182;2023-03-21T10:13:55;97970.50;;;13.13;68.23
38852;BME280;24605;50.092;9.182;2023-03-21T10:16:26;97954.84;;;12.90;66.74
38852;BME280;24605;50.092;9.182;2023-03-21T10:18:53;97968.72;;;12.84;67.26
38852;BME280;24605;50.092;9.182;2023-03-21T10:21:22;97962.75;;;12.60;68.88
38852;BME280;24605;50.092;9.182;2023-03-21T10:23:50;97957.63;;;13.04;67.68
38852;BME280;24605;50.092;9.182;2023-03-21T10:26:20;97967.78;;;13.07;67.31
38852;BME280;24605;50.092;9.182;2023-03-21T10:28:48;97969.06;;;12.96;66.00
38852;BME280;24605;50.092;9.182;2023-03-21T10:31:17;97973.25;;;12.75;66.24
38852;BME280;24605;50.092;9.182;2023-03-21T10:33:46;97943.22;;;12.69;65.87
38852;BME280;24605;50.092;9.182;2023-03-21T10:36:16;97968.00;;;12.90;64.70
38852;BME280;24605;50.092;9.182;2023-03-21T10:38:46;97969.97;;;13.03;65.65
38852;BME280;24605;50.092;9.182;2023-03-21T10:41:14;97962.91;;;13.04;65.88
38852;BME280;24605;50.092;9.182;2023-03-21T10:43:42;97959.38;;;13.33;64.81
38852;BME280;24605;50.092;9.182;2023-03-21T10:46:11;97960.09;;;13.42;63.78
38852;BME280;24605;50.092;9.182;2023-03-21T10:48:40;97961.53;;;13.08;64.61
38852;BME280;24605;50.092;9.182;2023-03-21T10:51:15;97958.75;;;12.94;64.81
38852;BME280;24605;50.092;9.182;2023-03-21T10:53:45;97963.94;;;13.24;64.69
38852;BME280;24605;50.092;9.182;2023-03-21T10:56:15;97953.16;;;13.19;64.07
38852;BME280;24605;50.092;9.182;2023-03-21T10:58:45;97962.94;;;13.25;64.24
38852;BME280;24605;50.092;9.182;2023-03-21T11:01:15;97958.81;;;13.01;65.23
38852;BME280;24605;50.092;9.182;2023-03-21T11:03:55;97955.63;;;13.06;64.64
38852;BME280;24605;50.092;9.182;2023-03-21T11:06:26;97956.22;;;13.23;64.81
38852;BME280;24605;50.092;9.182;2023-03-21T11:08:55;97963.00;;;13.32;66.62
38852;BME280;24605;50.092;9.182;2023-03-21T11:11:26;97950.31;;;12.84;65.66
38852;BME280;24605;50.092;9.182;2023-03-21T11:13:57;97945.69;;;12.41;68.71
38852;BME280;24605;50.092;9.182;2023-03-21T11:16:29;97961.34;;;12.34;73.22
38852;BME280;24605;50.092;9.182;2023-03-21T11:19:00;97963.28;;;12.41;73.82
38852;BME280;24605;50.092;9.182;2023-03-21T11:21:34;97956.03;;;12.43;75.42
38852;BME280;24605;50.092;9.182;2023-03-21T11:24:02;97960.03;;;12.53;84.36
38852;BME280;24605;50.092;9.182;2023-03-21T11:26:32;97951.22;;;12.91;75.72
38852;BME280;24605;50.092;9.182;2023-03-21T11:29:08;97946.09;;;13.05;78.33
38852;BME280;24605;50.092;9.182;2023-03-21T11:31:37;97950.75;;;13.03;73.87
38852;BME280;24605;50.092;9.182;2023-03-21T11:34:05;97953.25;;;13.11;72.62
38852;BME280;24605;50.092;9.182;2023-03-21T11:36:34;97946.13;;;13.41;73.14
38852;BME280;24605;50.092;9.182;2023-03-21T11:39:14;97938.75;;;13.37;76.36
38852;BME280;24605;50.092;9.182;2023-03-21T11:41:50;97945.56;;;13.68;74.84
38852;BME280;24605;50.092;9.182;2023-03-21T11:44:32;97943.44;;;13.56;73.58
38852;BME280;24605;50.092;9.182;2023-03-21T11:47:00;97936.19;;;13.07;73.17
38852;BME280;24605;50.092;9.182;2023-03-21T11:49:27;97871.97;;;12.64;70.07
38852;BME280;24605;50.092;9.182;2023-03-21T11:52:08;97899.03;;;12.95;69.72
38852;BME280;24605;50.092;9.182;2023-03-21T11:54:52;97913.50;;;13.06;71.00
38852;BME280;24605;50.092;9.182;2023-03-21T11:57:29;97933.63;;;13.28;71.01
38852;BME280;24605;50.092;9.182;2023-03-21T12:00:05;97925.19;;;13.18;71.45
38852;BME280;24605;50.092;9.182;2023-03-21T12:03:02;97903.78;;;13.21;71.08
38852;BME280;24605;50.092;9.182;2023-03-21T12:05:34;97910.16;;;13.12;70.69
38852;BME280;24605;50.092;9.182;2023-03-21T12:08:06;97919.69;;;13.35;75.85
38852;BME280;24605;50.092;9.182;2023-03-21T12:10:37;97917.38;;;13.25;69.52
38852;BME280;24605;50.092;9.182;2023-03-21T12:13:15;97918.53;;;13.00;71.11
38852;BME280;24605;50.092;9.182;2023-03-21T12:15:51;97918.22;;;12.59;72.74
38852;BME280;24605;50.092;9.182;2023-03-21T12:18:38;97920.94;;;12.35;75.96
38852;BME280;24605;50.092;9.182;2023-03-21T12:21:10;97901.91;;;12.33;76.77
38852;BME280;24605;50.092;9.182;2023-03-21T12:23:47;97907.78;;;12.35;77.47
38852;BME280;24605;50.092;9.182;2023-03-21T12:26:21;97909.50;;;12.28;76.67
38852;BME280;24605;50.092;9.182;2023-03-21T12:29:02;97904.63;;;12.40;78.47
38852;BME280;24605;50.092;9.182;2023-03-21T12:31:44;97883.31;;;11.82;79.97
38852;BME280;24605;50.092;9.182;2023-03-21T12:34:24;97906.03;;;11.98;83.00
38852;BME280;24605;50.092;9.182;2023-03-21T12:37:04;97901.78;;;11.73;82.95
38852;BME280;24605;50.092;9.182;2023-03-21T12:39:38;97894.91;;;12.11;84.18
38852;BME280;24605;50.092;9.182;2023-03-21T12:42:23;97895.41;;;11.91;89.68
38852;BME280;24605;50.092;9.182;2023-03-21T12:44:57;97893.34;;;12.01;nan
38852;BME280;24605;50.092;9.182;2023-03-21T12:47:29;97891.50;;;11.87;87.37
38852;BME280;24605;50.092;9.182;2023-03-21T12:50:01;97882.94;;;11.70;90.90
38852;BME280;24605;50.092;9.182;2023-03-21T12:52:33;97883.19;;;11.60;91.49
38852;BME280;24605;50.092;9.182;2023-03-21T12:55:05;97887.59;;;11.83;91.91
38852;BME280;24605;50.092;9.182;2023-03-21T12:57:41;97882.72;;;11.80;92.11
38852;BME280;24605;50.092;9.182;2023-03-21T13:00:15;97885.34;;;11.80;95.31
38852;BME280;24605;50.092;9.182;2023-03-21T13:02:49;97889.41;;;12.05;97.98
38852;BME280;24605;50.092;9.182;2023-03-21T13:05:21;97885.06;;;11.89;97.77
38852;BME280;24605;50.092;9.182;2023-03-21T13:07:54;97869.78;;;11.55;100.00
38852;BME280;24605;50.092;9.182;2023-03-21T13:10:22;97860.25;;;11.16;100.00
38852;BME280;24605;50.092;9.182;2023-03-21T13:13:02;97880.69;;;10.97;100.00
38852;BME280;24605;50.092;9.182;2023-03-21T13:15:42;97861.56;;;10.88;100.00
38852;BME280;24605;50.092;9.182;2023-03-21T13:18:19;97867.72;;;11.04;100.00
38852;BME280;24605;50.092;9.182;2023-03-21T13:20:52;97876.03;;;11.07;100.00
38852;BME280;24605;50.092;9.182;2023-03-21T13:23:20;97859.53;;;11.22;100.00
38852;BME280;24605;50.092;9.182;2023-03-21T13:25:48;97867.72;;;11.04;100.00
38852;BME280;24605;50.092;9.182;2023-03-21T13:28:19;97865.00;;;10.89;100.00